createdAt,value
2022-09-11T00:02:50.293Z,6.53
2022-09-11T00:09:36.736Z,6.45
2022-09-11T00:16:29.434Z,7.72
2022-09-11T00:23:17.652Z,7.47
2022-09-11T00:30:03.764Z,6.30
2022-09-11T00:36:52.312Z,6.25
2022-09-11T00:44:03.027Z,6.40
2022-09-11T00:50:49.777Z,6.68
2022-09-11T00:57:45.477Z,6.50
2022-09-11T01:04:32.548Z,7.10
2022-09-11T01:11:34.400Z,6.75
2022-09-11T01:18:32.509Z,7.22
2022-09-11T01:25:30.203Z,7.15
2022-09-11T01:32:24.922Z,7.22
2022-09-11T01:39:10.998Z,7.35
2022-09-11T01:45:59.390Z,7.90
2022-09-11T01:52:53.475Z,8.38
2022-09-11T01:59:44.070Z,8.23
2022-09-11T02:06:36.478Z,8.13
2022-09-11T02:13:32.876Z,8.35
2022-09-11T02:20:22.318Z,10.45
2022-09-11T02:27:12.611Z,12.02
2022-09-11T02:34:00.844Z,20.90
2022-09-11T02:40:56.169Z,12.48
2022-09-11T03:01:32.373Z,8.95
2022-09-11T03:08:20.386Z,10.15
2022-09-11T03:15:07.081Z,10.27
2022-09-11T03:21:55.736Z,10.38
2022-09-11T03:28:41.301Z,10.77
2022-09-11T03:35:27.416Z,10.93
2022-09-11T03:42:15.927Z,10.43
2022-09-11T03:49:02.133Z,11.05
2022-09-11T03:55:50.103Z,12.93
2022-09-11T04:02:38.443Z,14.70
2022-09-11T04:09:24.487Z,12.98
2022-09-11T04:16:14.852Z,29.92
2022-09-11T04:23:05.696Z,24.27
2022-09-11T04:29:51.861Z,13.18
2022-09-11T04:36:37.469Z,13.15
2022-09-11T04:43:27.610Z,13.45
2022-09-11T04:50:16.478Z,13.57
2022-09-11T04:57:02.284Z,13.07
2022-09-11T05:03:50.815Z,13.82
2022-09-11T05:10:42.306Z,14.43
2022-09-11T05:17:28.516Z,12.82
2022-09-11T05:24:16.580Z,16.33
2022-09-11T05:31:03.236Z,15.75
2022-09-11T05:37:49.120Z,15.52
2022-09-11T05:44:37.269Z,19.13
2022-09-11T05:51:25.259Z,14.40
2022-09-11T05:58:11.337Z,16.13
2022-09-11T06:04:59.412Z,13.70
2022-09-11T06:11:44.911Z,14.45
2022-09-11T06:18:30.713Z,14.18
2022-09-11T06:25:18.953Z,13.43
2022-09-11T06:32:04.645Z,14.23
2022-09-11T06:38:56.995Z,15.32
2022-09-11T06:45:48.389Z,13.90
2022-09-11T06:52:37.696Z,15.02
2022-09-11T06:59:44.906Z,15.32
2022-09-11T07:06:35.243Z,13.13
2022-09-11T07:13:21.044Z,15.95
2022-09-11T07:20:07.682Z,18.00
2022-09-11T07:26:56.095Z,16.75
2022-09-11T07:33:49.944Z,16.23
2022-09-11T07:40:35.451Z,15.80
2022-09-11T07:47:24.085Z,17.65
2022-09-11T07:54:13.056Z,17.25
2022-09-11T08:01:02.533Z,18.35
2022-09-11T08:07:51.139Z,20.15
2022-09-11T08:14:38.095Z,18.48
2022-09-11T08:21:29.269Z,17.38
2022-09-11T08:28:18.044Z,21.25
2022-09-11T08:35:03.597Z,19.10
2022-09-11T08:41:53.722Z,24.52
2022-09-11T08:48:55.444Z,22.85
2022-09-11T08:55:46.255Z,19.40
2022-09-11T09:02:52.813Z,19.25
2022-09-11T09:09:50.976Z,19.98
2022-09-11T09:16:51.844Z,22.27
2022-09-11T09:23:45.019Z,27.40
2022-09-11T09:30:51.648Z,27.33
2022-09-11T09:44:49.428Z,24.33
2022-09-11T09:51:37.521Z,25.35
2022-09-11T09:58:26.084Z,22.98
2022-09-11T10:05:22.286Z,22.25
2022-09-11T10:12:18.112Z,23.13
2022-09-11T10:19:03.450Z,24.63
2022-09-11T10:25:52.307Z,21.85
2022-09-11T10:32:45.409Z,16.38
2022-09-11T10:39:34.757Z,15.77
2022-09-11T10:46:39.981Z,14.23
2022-09-11T10:53:29.479Z,15.70
2022-09-11T11:00:21.598Z,14.18
2022-09-11T11:07:22.710Z,13.82
2022-09-11T11:14:44.075Z,15.40
2022-09-11T11:21:44.677Z,14.52
2022-09-11T11:28:58.599Z,17.30
2022-09-11T11:35:59.621Z,17.58
2022-09-11T11:42:55.365Z,16.08
2022-09-11T11:49:57.953Z,17.48
2022-09-11T11:56:52.694Z,15.38
2022-09-11T12:03:43.290Z,13.68
2022-09-11T12:10:36.959Z,12.90
2022-09-11T12:17:30.340Z,12.35
2022-09-11T12:24:22.276Z,14.32
2022-09-11T12:31:11.419Z,11.98
2022-09-11T12:38:13.360Z,12.45
2022-09-11T12:45:04.769Z,10.75
2022-09-11T12:51:56.788Z,10.43
2022-09-11T12:58:48.220Z,11.68
2022-09-11T13:05:38.168Z,11.50
2022-09-11T13:12:53.875Z,10.27
2022-09-11T13:19:42.557Z,9.75
2022-09-11T13:26:32.713Z,10.13
2022-09-11T13:33:27.900Z,9.13
2022-09-11T13:40:25.629Z,9.53
2022-09-11T13:47:22.201Z,9.55
2022-09-11T13:54:14.461Z,10.45
2022-09-11T14:01:14.304Z,8.77
2022-09-11T14:08:07.428Z,7.47
2022-09-11T14:14:57.618Z,8.48
2022-09-11T14:21:48.799Z,7.78
2022-09-11T14:28:43.978Z,8.10
2022-09-11T14:35:32.556Z,8.25
2022-09-11T14:42:24.633Z,8.05
2022-09-11T14:49:12.856Z,8.63
2022-09-11T14:55:59.757Z,8.75
2022-09-11T15:02:48.463Z,8.55
2022-09-11T15:09:33.897Z,7.88
2022-09-11T15:16:19.261Z,8.18
2022-09-11T15:29:52.677Z,7.90
2022-09-11T15:36:38.883Z,8.00
2022-09-11T15:43:27.461Z,8.57
2022-09-11T15:50:18.211Z,8.13
2022-09-11T15:57:03.741Z,7.72
2022-09-11T16:10:40.860Z,8.00
2022-09-11T16:17:31.108Z,8.07
2022-09-11T16:24:20.165Z,10.13
2022-09-11T16:31:07.677Z,9.65
2022-09-11T16:37:53.067Z,8.68
2022-09-11T16:44:41.025Z,8.27
2022-09-11T16:51:28.139Z,9.65
2022-09-11T16:58:13.548Z,7.10
2022-09-11T17:05:01.530Z,7.38
2022-09-11T17:11:48.173Z,8.70
2022-09-11T17:18:33.772Z,7.75
2022-09-11T17:25:22.015Z,8.48
2022-09-11T17:39:13.005Z,8.45
2022-09-11T17:52:54.192Z,11.13
2022-09-11T17:59:39.614Z,10.15
2022-09-11T18:06:33.996Z,9.90
2022-09-11T18:13:22.130Z,11.60
2022-09-11T18:20:09.766Z,11.88
2022-09-11T18:27:00.898Z,14.82
2022-09-11T18:33:47.139Z,12.45
2022-09-11T18:40:32.546Z,9.98
2022-09-11T18:47:20.803Z,10.80
2022-09-11T18:54:17.745Z,9.32
2022-09-11T19:01:05.552Z,9.68
2022-09-11T19:07:52.195Z,10.45
2022-09-11T19:14:40.792Z,11.80
2022-09-11T19:21:27.601Z,11.75
2022-09-11T19:28:13.166Z,11.60
2022-09-11T19:35:02.727Z,11.05
2022-09-11T19:41:48.109Z,11.10
2022-09-11T19:48:33.692Z,11.10
2022-09-11T19:55:21.696Z,10.52
2022-09-11T20:02:07.425Z,10.00
2022-09-11T20:16:06.387Z,11.60
2022-09-11T20:22:51.738Z,12.20
2022-09-11T20:29:40.018Z,9.98
2022-09-11T20:36:30.180Z,11.93
2022-09-11T20:43:15.605Z,9.85
2022-09-11T20:50:00.974Z,16.95
2022-09-11T20:56:48.964Z,9.60
2022-09-11T21:03:35.169Z,9.40
2022-09-11T21:10:20.745Z,10.73
2022-09-11T21:17:09.028Z,9.68
2022-09-11T21:23:57.682Z,9.48
2022-09-11T21:30:43.081Z,9.82
2022-09-11T21:37:31.095Z,11.53
2022-09-11T21:44:16.916Z,9.70
2022-09-11T21:51:09.797Z,10.68
2022-09-11T21:57:57.962Z,10.15
2022-09-11T22:04:43.613Z,9.80
2022-09-11T22:11:29.164Z,11.53
2022-09-11T22:18:18.483Z,14.02
2022-09-11T22:25:03.926Z,9.32
2022-09-11T22:31:49.333Z,9.10
2022-09-11T22:38:37.381Z,9.50
2022-09-11T22:45:22.749Z,9.85
2022-09-11T22:52:08.440Z,10.23
2022-09-11T22:58:57.045Z,9.77
2022-09-11T23:05:54.965Z,8.90
2022-09-11T23:12:40.349Z,10.27
2022-09-11T23:19:28.736Z,9.52
2022-09-11T23:26:15.988Z,9.18
2022-09-11T23:33:01.383Z,10.00
2022-09-11T23:39:49.757Z,10.23
2022-09-11T23:46:35.368Z,9.32
2022-09-11T23:53:20.815Z,8.95
